Time;durP1;ratioP1;P1;durP2;ratioP2;P2;SDS_P1;SDS_P2;PMS_P1;PMS_P2;Temp;Humidity;BMP_temperature;BMP_pressure;BME280_temperature;BME280_humidity;BME280_pressure;Samples;Min_cycle;Max_cycle;Signal;HPM_P1;HPM_P2
2023/01/12 00:01:22;;;;;;;38.95;6.88;;;10.30;99.90;;;;;;4932084;29;20047;-69
2023/01/12 00:03:49;;;;;;;35.92;5.20;;;10.30;99.90;;;;;;4930243;29;20055;-70
2023/01/12 00:06:15;;;;;;;29.40;5.95;;;10.30;99.90;;;;;;4922950;29;20052;-71
2023/01/12 00:08:42;;;;;;;31.88;6.68;;;10.30;99.90;;;;;;4913225;29;20139;-70
2023/01/12 00:11:09;;;;;;;35.88;5.93;;;10.20;99.90;;;;;;4929139;29;20079;-70
2023/01/12 00:13:35;;;;;;;28.23;5.20;;;10.20;99.90;;;;;;4929330;29;20081;-71
2023/01/12 00:18:51;;;;;;;23.10;4.47;;;10.30;99.90;;;;;;4917108;29;20047;-70
2023/01/12 00:21:18;;;;;;;31.33;5.50;;;10.30;99.90;;;;;;4930739;29;20098;-70
2023/01/12 00:23:45;;;;;;;23.30;4.20;;;10.20;99.90;;;;;;4930822;29;20052;-71
2023/01/12 00:26:11;;;;;;;27.35;4.53;;;10.20;99.90;;;;;;4930245;29;20139;-71
2023/01/12 00:28:38;;;;;;;27.50;4.38;;;10.20;99.90;;;;;;4930715;29;20055;-71
2023/01/12 00:31:09;;;;;;;25.35;4.30;;;10.20;99.90;;;;;;4930287;29;20151;-72
2023/01/12 00:33:36;;;;;;;28.13;4.43;;;10.20;99.90;;;;;;4930676;29;20047;-72
2023/01/12 00:36:08;;;;;;;27.38;4.22;;;10.30;99.90;;;;;;4930482;29;20051;-70
2023/01/12 00:38:35;;;;;;;21.30;4.22;;;10.30;99.90;;;;;;4930567;29;20134;-72
2023/01/12 00:41:09;;;;;;;20.20;3.67;;;10.30;99.90;;;;;;4913446;29;20052;-71
2023/01/12 00:46:31;;;;;;;21.15;3.67;;;10.30;99.90;;;;;;4930596;29;20278;-71
2023/01/12 00:48:57;;;;;;;27.10;4.03;;;10.40;99.90;;;;;;4922921;29;20063;-71
2023/01/12 00:51:24;;;;;;;11.13;2.33;;;10.40;99.90;;;;;;4930313;29;20051;-71
2023/01/12 00:53:51;;;;;;;24.60;5.05;;;10.40;99.90;;;;;;4930828;29;20075;-71
2023/01/12 00:56:18;;;;;;;26.05;4.30;;;10.40;99.90;;;;;;4930901;29;20048;-70
2023/01/12 00:58:44;;;;;;;12.63;3.33;;;10.40;99.90;;;;;;4930857;29;20083;-71
2023/01/12 01:01:11;;;;;;;27.77;4.35;;;10.50;99.90;;;;;;4913793;29;20051;-71
2023/01/12 01:03:38;;;;;;;25.42;4.93;;;10.60;99.90;;;;;;4930809;29;20103;-71
2023/01/12 01:06:05;;;;;;;19.55;3.33;;;10.60;99.90;;;;;;4930689;29;20653;-71
2023/01/12 01:08:35;;;;;;;29.45;3.80;;;10.60;99.90;;;;;;4930427;29;20051;-71
2023/01/12 01:11:05;;;;;;;32.20;4.72;;;10.60;99.90;;;;;;4930936;29;20083;-71
2023/01/12 01:13:33;;;;;;;22.20;3.28;;;10.60;99.90;;;;;;4930414;29;20060;-72
2023/01/12 01:16:03;;;;;;;26.13;3.35;;;10.60;99.90;;;;;;4931084;29;20423;-71
2023/01/12 01:18:31;;;;;;;22.97;3.93;;;10.60;99.90;;;;;;4592196;29;10000679;-71
2023/01/12 01:20:57;;;;;;;28.88;3.95;;;10.60;99.90;;;;;;4931717;29;20522;-72
2023/01/12 01:23:24;;;;;;;31.98;5.05;;;10.50;99.90;;;;;;4916665;29;20638;-71
2023/01/12 01:25:51;;;;;;;24.77;3.60;;;10.60;99.90;;;;;;4934290;29;20054;-72
2023/01/12 01:28:18;;;;;;;25.38;3.95;;;10.60;99.90;;;;;;4934008;29;20130;-71
2023/01/12 01:30:45;;;;;;;36.05;4.10;;;10.60;99.90;;;;;;4934050;29;20047;-71
2023/01/12 01:33:12;;;;;;;23.67;3.95;;;10.60;99.90;;;;;;4933927;29;20114;-71
2023/01/12 01:35:39;;;;;;;21.30;4.20;;;10.60;99.90;;;;;;4933735;29;20082;-72
2023/01/12 01:38:06;;;;;;;20.83;4.35;;;10.60;99.90;;;;;;4933793;29;20044;-72
2023/01/12 01:40:32;;;;;;;18.52;3.80;;;10.70;99.90;;;;;;4917047;29;20224;-72
2023/01/12 01:42:59;;;;;;;18.98;4.20;;;10.70;99.90;;;;;;4933726;29;20044;-71
2023/01/12 01:45:26;;;;;;;23.52;3.45;;;10.70;99.90;;;;;;4933859;29;20134;-72
2023/01/12 01:47:57;;;;;;;23.63;4.00;;;10.70;99.90;;;;;;4916805;29;20043;-71
2023/01/12 01:50:42;;;;;;;24.27;3.60;;;10.70;99.90;;;;;;4933869;29;20054;-72
2023/01/12 01:53:11;;;;;;;36.95;3.90;;;10.70;99.90;;;;;;4933823;29;20298;-72
2023/01/12 01:55:47;;;;;;;16.23;3.33;;;10.70;99.90;;;;;;4933503;29;20103;-71
2023/01/12 01:58:34;;;;;;;19.48;3.47;;;10.70;99.90;;;;;;4934472;29;20495;-71
2023/01/12 02:01:01;;;;;;;17.33;3.08;;;10.70;99.90;;;;;;4927762;29;20123;-72
2023/01/12 02:03:28;;;;;;;23.42;4.63;;;10.80;99.90;;;;;;4935301;29;20047;-71
2023/01/12 02:05:56;;;;;;;21.52;3.22;;;10.80;99.90;;;;;;4933624;29;20131;-72
2023/01/12 02:08:45;;;;;;;11.13;2.53;;;10.80;99.90;;;;;;4916384;29;20052;-72
2023/01/12 02:16:47;;;;;;;10.57;3.10;;;10.80;99.90;;;;;;4924187;29;20047;-72
2023/01/12 02:19:26;;;;;;;16.25;2.53;;;10.90;99.90;;;;;;4914314;29;20083;-73
2023/01/12 02:22:16;;;;;;;14.18;2.97;;;10.90;99.90;;;;;;4923651;29;20051;-72
2023/01/12 02:25:18;;;;;;;12.48;1.73;;;11.00;99.90;;;;;;4916210;29;20058;-72
2023/01/12 02:27:58;;;;;;;9.90;1.95;;;11.10;99.90;;;;;;4902688;29;20060;-72
2023/01/12 02:30:59;;;;;;;11.70;2.05;;;11.10;99.90;;;;;;4917019;29;20558;-73
2023/01/12 02:33:30;;;;;;;10.05;1.80;;;11.10;99.90;;;;;;4914077;29;20547;-72
2023/01/12 02:36:03;;;;;;;9.60;1.75;;;11.20;99.90;;;;;;4911309;29;20054;-71
2023/01/12 02:38:35;;;;;;;10.45;2.58;;;11.30;99.90;;;;;;4916029;29;20051;-72
2023/01/12 02:41:05;;;;;;;19.58;2.55;;;11.30;99.90;;;;;;4932636;29;20510;-71
2023/01/12 02:43:32;;;;;;;5.00;1.98;;;11.40;99.90;;;;;;4915932;29;20062;-72
2023/01/12 02:46:17;;;;;;;14.60;1.98;;;11.40;99.90;;;;;;4932303;29;20047;-72
2023/01/12 02:49:06;;;;;;;24.02;3.53;;;11.40;99.90;;;;;;4941531;29;20045;-71
2023/01/12 02:51:44;;;;;;;9.55;1.83;;;11.40;99.90;;;;;;4915671;29;20056;-71
2023/01/12 02:54:12;;;;;;;11.07;1.88;;;11.40;99.90;;;;;;4913840;29;20052;-71
2023/01/12 02:56:47;;;;;;;9.80;1.88;;;11.40;99.90;;;;;;4915009;29;20048;-71
2023/01/12 02:59:26;;;;;;;16.08;2.30;;;11.50;99.90;;;;;;4900544;29;20126;-71
2023/01/12 03:02:11;;;;;;;10.60;2.13;;;11.50;99.90;;;;;;4897977;29;20495;-71
2023/01/12 03:04:39;;;;;;;13.52;2.30;;;11.50;99.90;;;;;;4912518;29;20135;-71
2023/01/12 03:07:21;;;;;;;6.97;1.75;;;11.60;99.90;;;;;;4928370;29;20055;-69
2023/01/12 03:09:51;;;;;;;7.38;1.75;;;11.50;99.90;;;;;;4912451;29;20642;-71
2023/01/12 03:12:23;;;;;;;9.95;1.77;;;11.60;99.90;;;;;;4928687;29;20070;-71
2023/01/12 03:14:50;;;;;;;10.68;1.70;;;11.60;99.90;;;;;;4932157;29;20047;-71
2023/01/12 03:17:38;;;;;;;16.50;3.20;;;11.60;99.90;;;;;;4899561;29;20047;-70
2023/01/12 03:20:09;;;;;;;7.68;1.67;;;11.60;99.90;;;;;;4913307;29;20044;-72
2023/01/12 03:22:36;;;;;;;11.82;1.80;;;11.60;99.90;;;;;;4911404;29;20051;-71
2023/01/12 03:25:08;;;;;;;10.52;2.20;;;11.60;99.90;;;;;;4915108;29;20414;-70
2023/01/12 03:27:43;;;;;;;6.90;1.42;;;11.60;99.90;;;;;;4900347;29;20051;-71
2023/01/12 03:30:13;;;;;;;11.43;1.52;;;11.60;99.90;;;;;;4932104;29;20527;-71
2023/01/12 03:32:40;;;;;;;6.88;1.95;;;11.60;99.90;;;;;;4914855;29;20052;-71
2023/01/12 03:35:08;;;;;;;11.23;1.63;;;11.70;99.90;;;;;;4915171;29;20070;-70
2023/01/12 03:37:49;;;;;;;10.48;2.33;;;11.60;99.90;;;;;;4914864;29;20047;-71
2023/01/12 03:40:25;;;;;;;5.28;1.50;;;11.60;99.90;;;;;;4899321;29;20053;-71
2023/01/12 03:42:56;;;;;;;11.30;1.60;;;11.70;99.90;;;;;;4915418;29;20047;-71
2023/01/12 03:45:34;;;;;;;12.85;1.70;;;11.80;99.90;;;;;;4914556;29;20790;-71
2023/01/12 03:48:24;;;;;;;5.78;1.40;;;11.80;99.90;;;;;;4914655;29;20106;-71
2023/01/12 03:51:04;;;;;;;5.70;1.48;;;12.00;99.90;;;;;;4932138;29;20047;-70
2023/01/12 03:53:30;;;;;;;7.63;1.77;;;11.80;99.90;;;;;;4915824;29;20055;-71
2023/01/12 03:56:00;;;;;;;7.97;1.27;;;11.70;99.90;;;;;;4931513;29;20058;-71
2023/01/12 03:58:26;;;;;;;5.55;1.35;;;11.80;99.90;;;;;;4899080;29;20138;-70
2023/01/12 04:00:53;;;;;;;5.72;1.45;;;11.80;99.90;;;;;;4931624;29;20188;-71
2023/01/12 04:03:20;;;;;;;5.63;1.17;;;11.80;99.90;;;;;;4930751;29;20055;-73
2023/01/12 04:05:47;;;;;;;5.85;1.45;;;11.90;99.90;;;;;;4913364;29;20399;-71
2023/01/12 04:08:14;;;;;;;3.55;1.30;;;11.90;99.90;;;;;;4931259;29;20058;-71
2023/01/12 04:10:41;;;;;;;6.05;1.00;;;12.00;99.90;;;;;;4931434;29;20557;-71
2023/01/12 04:13:08;;;;;;;2.78;0.77;;;12.00;99.90;;;;;;4911353;29;20453;-70
2023/01/12 04:15:37;;;;;;;9.88;1.55;;;12.00;99.90;;;;;;4932442;29;20051;-71
2023/01/12 04:18:04;;;;;;;9.00;1.45;;;12.10;99.90;;;;;;4933291;29;20190;-71
2023/01/12 04:20:31;;;;;;;4.07;1.00;;;12.10;99.90;;;;;;4934744;29;20048;-71
2023/01/12 04:22:58;;;;;;;9.93;2.15;;;12.10;99.90;;;;;;4933797;29;20077;-70
2023/01/12 04:25:25;;;;;;;5.18;1.55;;;12.10;99.90;;;;;;4932709;29;20055;-71
2023/01/12 04:28:06;;;;;;;6.40;0.98;;;12.10;99.90;;;;;;4933122;29;20630;-70
2023/01/12 04:30:33;;;;;;;5.97;1.48;;;12.10;99.90;;;;;;4932996;29;20039;-71
2023/01/12 04:33:00;;;;;;;6.40;1.40;;;12.10;99.90;;;;;;4936571;29;20047;-70
2023/01/12 04:35:26;;;;;;;3.53;1.25;;;12.10;99.90;;;;;;4916443;29;20127;-70
2023/01/12 04:37:53;;;;;;;6.15;1.30;;;12.00;99.90;;;;;;4931363;29;20126;-70
2023/01/12 04:40:20;;;;;;;9.00;1.52;;;12.10;99.90;;;;;;4931646;29;20134;-69
2023/01/12 04:43:00;;;;;;;5.90;0.85;;;12.00;99.90;;;;;;4931961;29;20062;-69
2023/01/12 04:45:29;;;;;;;11.65;3.30;;;12.00;99.90;;;;;;4932108;29;20408;-70
2023/01/12 04:47:59;;;;;;;5.95;1.10;;;12.00;99.90;;;;;;4913397;29;20063;-70
2023/01/12 04:50:26;;;;;;;3.80;1.00;;;12.00;99.90;;;;;;4911394;29;20052;-70
2023/01/12 04:52:52;;;;;;;4.25;0.95;;;12.00;99.90;;;;;;4935243;29;20450;-71
2023/01/12 04:55:19;;;;;;;3.88;1.23;;;12.00;99.90;;;;;;4934521;29;20051;-71
2023/01/12 04:57:46;;;;;;;5.20;1.08;;;12.10;99.90;;;;;;4936667;29;20495;-70
2023/01/12 05:00:13;;;;;;;5.38;1.40;;;12.10;99.90;;;;;;4937762;29;20087;-71
2023/01/12 05:02:40;;;;;;;2.55;0.93;;;12.10;99.90;;;;;;4905301;29;20051;-70
2023/01/12 05:05:08;;;;;;;4.32;1.23;;;12.10;99.90;;;;;;4936966;29;20070;-71
2023/01/12 05:07:34;;;;;;;3.45;0.65;;;12.10;99.90;;;;;;4937492;29;20110;-71
2023/01/12 05:12:46;;;;;;;3.13;0.70;;;12.10;99.90;;;;;;4934757;29;20102;-71
2023/01/12 05:15:13;;;;;;;3.80;0.98;;;12.20;99.90;;;;;;4934003;29;20044;-70
2023/01/12 05:17:40;;;;;;;5.63;0.73;;;12.20;99.90;;;;;;4934545;29;20127;-71
2023/01/12 05:20:07;;;;;;;2.83;0.85;;;12.20;99.90;;;;;;4934291;29;20055;-70
2023/01/12 05:22:34;;;;;;;5.03;0.90;;;12.20;99.90;;;;;;4934288;29;20055;-70
2023/01/12 05:25:01;;;;;;;4.03;1.05;;;12.20;99.90;;;;;;4934179;29;20052;-70
2023/01/12 05:27:29;;;;;;;5.65;0.93;;;12.20;99.90;;;;;;4930966;29;20073;-70
2023/01/12 05:29:58;;;;;;;4.35;1.00;;;12.20;99.90;;;;;;4934740;29;20135;-70
2023/01/12 05:32:25;;;;;;;4.25;1.10;;;12.30;99.90;;;;;;4933959;29;20048;-70
2023/01/12 05:34:52;;;;;;;5.80;1.33;;;12.20;99.90;;;;;;4933897;29;20122;-70
2023/01/12 05:37:19;;;;;;;3.47;2.03;;;12.20;99.90;;;;;;4933397;29;20051;-70
2023/01/12 05:39:45;;;;;;;5.28;1.08;;;12.20;99.90;;;;;;4934197;29;20055;-70
2023/01/12 05:44:57;;;;;;;4.47;0.98;;;12.20;99.90;;;;;;4934251;29;20061;-71
2023/01/12 05:47:24;;;;;;;3.28;0.82;;;12.30;99.90;;;;;;4933424;29;20051;-71
2023/01/12 05:49:51;;;;;;;5.05;0.82;;;12.30;99.90;;;;;;4933640;29;20107;-70
2023/01/12 05:52:17;;;;;;;5.50;1.25;;;12.30;99.90;;;;;;4933708;29;20062;-70
2023/01/12 05:54:44;;;;;;;7.53;0.95;;;12.30;99.90;;;;;;4916843;29;20067;-71
2023/01/12 05:57:11;;;;;;;2.22;0.80;;;12.20;99.90;;;;;;4933464;29;20130;-71
2023/01/12 05:59:37;;;;;;;9.15;1.30;;;12.30;99.90;;;;;;4901121;29;20558;-70
2023/01/12 06:02:04;;;;;;;11.07;1.50;;;12.30;99.90;;;;;;4932653;29;20052;-70
2023/01/12 06:04:31;;;;;;;9.55;1.88;;;12.20;99.90;;;;;;4934096;29;20156;-71
2023/01/12 06:06:58;;;;;;;7.00;1.30;;;12.30;99.90;;;;;;4933145;29;20090;-70
2023/01/12 06:09:24;;;;;;;5.38;1.05;;;12.30;99.90;;;;;;4933556;29;20054;-71
2023/01/12 06:14:36;;;;;;;4.13;0.82;;;12.30;99.90;;;;;;4933333;29;20078;-70
2023/01/12 06:17:03;;;;;;;3.80;1.15;;;12.30;99.90;;;;;;4933009;29;20134;-71
2023/01/12 06:19:30;;;;;;;4.38;1.05;;;12.30;99.90;;;;;;4933498;29;20095;-71
2023/01/12 06:21:58;;;;;;;3.75;1.00;;;12.30;99.90;;;;;;4933257;29;20106;-71
2023/01/12 06:24:27;;;;;;;6.65;1.48;;;12.30;99.90;;;;;;4927622;29;20596;-72
2023/01/12 06:26:53;;;;;;;5.80;1.08;;;12.30;99.90;;;;;;4933064;29;20507;-71
2023/01/12 06:29:20;;;;;;;4.72;1.67;;;12.30;99.90;;;;;;4932756;29;20106;-71
2023/01/12 06:31:47;;;;;;;9.45;0.85;;;12.30;99.90;;;;;;4932992;29;20055;-69
2023/01/12 06:34:14;;;;;;;3.63;0.73;;;12.30;99.90;;;;;;4932821;29;20054;-69
2023/01/12 06:36:41;;;;;;;6.25;2.75;;;12.30;99.90;;;;;;4915991;29;20062;-70
2023/01/12 06:39:07;;;;;;;5.13;1.48;;;12.30;99.90;;;;;;4932873;29;20039;-70
2023/01/12 06:44:19;;;;;;;5.75;0.80;;;12.30;99.90;;;;;;4933020;29;20381;-70
2023/01/12 06:46:46;;;;;;;4.72;0.88;;;12.40;99.90;;;;;;4933006;29;20062;-70
2023/01/12 06:49:15;;;;;;;2.53;0.88;;;12.40;99.90;;;;;;4915756;29;20056;-70
2023/01/12 06:51:42;;;;;;;5.53;1.20;;;12.40;99.90;;;;;;4932851;29;20052;-70
2023/01/12 06:54:09;;;;;;;9.05;1.38;;;12.40;99.90;;;;;;4931570;29;20574;-70
2023/01/12 06:56:36;;;;;;;2.72;0.93;;;12.40;99.90;;;;;;4932064;29;20130;-70
2023/01/12 06:59:03;;;;;;;4.82;1.10;;;12.40;99.90;;;;;;4932789;29;20043;-70
2023/01/12 07:01:29;;;;;;;7.65;1.58;;;12.40;99.90;;;;;;4932796;29;20048;-71
2023/01/12 07:03:56;;;;;;;4.47;0.90;;;12.40;99.90;;;;;;4936022;29;20067;-71
2023/01/12 07:06:23;;;;;;;6.85;1.25;;;12.30;99.90;;;;;;4937209;29;20054;-69
2023/01/12 07:08:50;;;;;;;5.03;0.82;;;12.30;99.90;;;;;;4932427;29;20048;-71
2023/01/12 07:11:17;;;;;;;3.17;0.70;;;12.30;99.90;;;;;;4932280;29;20083;-71
2023/01/12 07:13:43;;;;;;;5.43;2.10;;;12.30;99.90;;;;;;4930890;29;20098;-72
2023/01/12 07:16:13;;;;;;;3.63;1.23;;;12.30;99.90;;;;;;4931660;29;20044;-72
2023/01/12 07:18:40;;;;;;;8.20;1.55;;;12.30;99.90;;;;;;4931629;29;20393;-74
2023/01/12 07:21:07;;;;;;;5.25;1.05;;;12.30;99.90;;;;;;4932235;29;20073;-71
2023/01/12 07:23:36;;;;;;;5.78;1.85;;;12.40;99.90;;;;;;4930374;29;20055;-73
2023/01/12 07:26:02;;;;;;;8.18;1.10;;;12.30;99.90;;;;;;4929430;29;20071;-73
2023/01/12 07:28:33;;;;;;;7.82;1.17;;;12.30;99.90;;;;;;4931446;29;20064;-74
2023/01/12 07:31:00;;;;;;;6.55;1.02;;;12.30;99.90;;;;;;4930785;29;20062;-72
2023/01/12 07:33:28;;;;;;;5.90;1.08;;;12.30;99.90;;;;;;4931161;29;20052;-73
2023/01/12 07:35:58;;;;;;;6.35;1.10;;;12.30;99.90;;;;;;4913788;29;20404;-73
2023/01/12 07:38:26;;;;;;;4.18;1.20;;;12.30;99.90;;;;;;4931321;29;20059;-75
2023/01/12 07:40:53;;;;;;;5.63;1.02;;;12.30;99.90;;;;;;4926435;29;20076;-77
2023/01/12 07:43:19;;;;;;;5.13;0.95;;;12.40;99.90;;;;;;4928512;29;20047;-77
2023/01/12 07:45:46;;;;;;;10.48;1.45;;;12.30;99.90;;;;;;4931334;29;20514;-77
2023/01/12 07:48:14;;;;;;;6.22;1.58;;;12.30;99.90;;;;;;4931393;29;20073;-76
2023/01/12 07:50:41;;;;;;;8.80;1.30;;;12.30;99.90;;;;;;4931137;29;20052;-76
2023/01/12 07:53:08;;;;;;;6.80;1.23;;;12.30;99.90;;;;;;4930853;29;20056;-76
2023/01/12 07:55:35;;;;;;;7.82;1.23;;;12.30;99.90;;;;;;4931387;29;20046;-77
2023/01/12 07:58:02;;;;;;;9.20;1.67;;;12.30;99.90;;;;;;4911105;29;20062;-75
2023/01/12 08:00:29;;;;;;;11.55;1.98;;;12.30;99.90;;;;;;4916055;29;20134;-75
2023/01/12 08:03:06;;;;;;;7.95;1.30;;;12.30;99.90;;;;;;4931451;29;20054;-76
2023/01/12 08:05:33;;;;;;;12.60;2.15;;;12.30;99.90;;;;;;4930969;29;20043;-75
2023/01/12 08:08:00;;;;;;;8.23;1.58;;;12.20;99.90;;;;;;4930543;29;20047;-75
2023/01/12 08:10:30;;;;;;;5.32;1.10;;;12.20;99.90;;;;;;4931051;29;20048;-75
2023/01/12 08:12:56;;;;;;;9.02;1.65;;;12.20;99.90;;;;;;4914176;29;20085;-76
2023/01/12 08:15:23;;;;;;;6.53;2.10;;;12.20;99.90;;;;;;4931556;29;20138;-75
2023/01/12 08:18:02;;;;;;;9.95;1.55;;;12.20;99.90;;;;;;4930992;29;20055;-74
2023/01/12 08:20:34;;;;;;;11.45;1.67;;;12.20;99.90;;;;;;4914795;29;20090;-74
2023/01/12 08:23:07;;;;;;;12.25;2.13;;;12.10;99.90;;;;;;4930977;29;20150;-75
2023/01/12 08:25:34;;;;;;;9.95;1.75;;;12.10;99.90;;;;;;4915552;29;20058;-75
2023/01/12 08:28:02;;;;;;;9.98;2.10;;;12.10;99.90;;;;;;4917874;29;20059;-75
2023/01/12 08:30:29;;;;;;;12.95;1.85;;;12.10;99.90;;;;;;4935030;29;20401;-75
2023/01/12 08:32:56;;;;;;;7.97;1.63;;;12.00;99.90;;;;;;4934830;29;20052;-75
2023/01/12 08:35:24;;;;;;;7.03;1.27;;;12.00;99.90;;;;;;4934151;29;20074;-75
2023/01/12 08:37:50;;;;;;;5.38;1.50;;;12.00;99.90;;;;;;4590551;29;10000653;-74
2023/01/12 08:40:17;;;;;;;10.52;3.05;;;11.90;99.90;;;;;;4931654;29;20059;-75
2023/01/12 08:42:44;;;;;;;7.05;1.67;;;11.90;99.90;;;;;;4931080;29;20051;-75
2023/01/12 08:45:11;;;;;;;11.90;2.95;;;11.90;99.90;;;;;;4931886;29;20048;-76
2023/01/12 08:47:39;;;;;;;9.10;1.73;;;11.90;99.90;;;;;;4931698;29;20061;-76
2023/01/12 08:50:07;;;;;;;11.15;2.25;;;11.90;99.90;;;;;;4931903;29;20056;-76
2023/01/12 08:52:34;;;;;;;6.43;1.90;;;11.80;99.90;;;;;;4931644;29;20442;-76
2023/01/12 08:55:01;;;;;;;3.78;0.98;;;11.80;99.90;;;;;;4931630;29;20074;-76
2023/01/12 08:57:28;;;;;;;13.05;2.38;;;11.80;99.90;;;;;;4932089;29;20051;-76
2023/01/12 08:59:56;;;;;;;9.70;1.77;;;11.80;99.90;;;;;;4932285;29;20099;-76
2023/01/12 09:02:25;;;;;;;13.30;3.22;;;11.80;99.90;;;;;;4914792;29;20071;-76
2023/01/12 09:04:52;;;;;;;9.85;1.80;;;11.80;99.90;;;;;;4932080;29;20054;-76
2023/01/12 09:07:19;;;;;;;11.98;2.63;;;11.80;99.90;;;;;;4914444;29;20060;-82
2023/01/12 09:09:46;;;;;;;13.55;2.58;;;11.80;99.90;;;;;;4932066;29;20131;-78
2023/01/12 09:12:12;;;;;;;13.52;2.15;;;11.80;99.90;;;;;;4928314;29;20135;-76
2023/01/12 09:14:39;;;;;;;12.45;2.70;;;11.80;99.90;;;;;;4932299;29;20055;-78
2023/01/12 09:17:06;;;;;;;22.52;2.63;;;11.80;99.90;;;;;;4934842;29;20048;-76
2023/01/12 09:19:33;;;;;;;17.48;3.13;;;11.80;99.90;;;;;;4935442;29;20066;-76
2023/01/12 09:22:00;;;;;;;12.18;1.95;;;11.80;99.90;;;;;;4937113;29;20140;-78
2023/01/12 09:24:26;;;;;;;14.07;2.22;;;11.80;99.90;;;;;;4933566;29;20095;-77
2023/01/12 09:26:53;;;;;;;10.60;2.10;;;11.80;99.90;;;;;;4937345;29;20044;-76
2023/01/12 09:29:20;;;;;;;15.48;2.20;;;11.90;99.90;;;;;;4939254;29;20048;-79
2023/01/12 09:31:47;;;;;;;9.15;1.77;;;11.90;99.90;;;;;;4940430;29;20582;-78
2023/01/12 09:34:13;;;;;;;8.95;1.77;;;11.90;99.90;;;;;;4938979;29;20055;-77
2023/01/12 09:36:41;;;;;;;14.82;1.67;;;11.90;99.90;;;;;;4940073;29;20048;-77
2023/01/12 09:39:07;;;;;;;6.60;2.45;;;11.90;99.90;;;;;;4943301;29;20082;-79
2023/01/12 09:47:27;;;;;;;8.85;1.50;;;12.00;99.90;;;;;;4918746;29;20049;-78
2023/01/12 09:50:05;;;;;;;10.18;2.22;;;12.10;99.90;;;;;;4915509;29;20075;-77
2023/01/12 09:52:45;;;;;;;6.70;1.45;;;12.10;99.90;;;;;;4938275;29;20150;-79
2023/01/12 09:55:15;;;;;;;5.32;1.20;;;12.10;99.90;;;;;;4927463;29;20106;-78
2023/01/12 09:57:50;;;;;;;6.80;1.30;;;12.10;99.90;;;;;;4914595;29;20048;-79
2023/01/12 10:00:18;;;;;;;4.47;1.05;;;12.20;99.90;;;;;;4931468;29;20147;-78
2023/01/12 10:03:03;;;;;;;9.27;1.55;;;12.20;99.90;;;;;;4931426;29;20043;-81
2023/01/12 10:05:49;;;;;;;3.10;0.73;;;12.30;99.90;;;;;;4931452;29;20063;-80
2023/01/12 10:08:41;;;;;;;8.38;1.50;;;12.30;99.90;;;;;;4937252;29;20058;-79
2023/01/12 10:11:24;;;;;;;12.23;1.38;;;12.30;99.90;;;;;;4940114;29;20052;-79
2023/01/12 10:14:11;;;;;;;7.88;1.08;;;12.30;99.90;;;;;;4912881;29;20055;-78
2023/01/12 10:17:09;;;;;;;6.63;1.40;;;12.30;99.90;;;;;;4906477;29;20093;-79
2023/01/12 10:19:54;;;;;;;6.65;1.15;;;12.30;99.90;;;;;;4930516;29;20047;-78
2023/01/12 10:22:36;;;;;;;4.63;0.98;;;12.30;99.90;;;;;;4928292;29;20132;-79
2023/01/12 10:25:26;;;;;;;7.82;1.83;;;12.30;99.90;;;;;;4916131;29;20054;-80
2023/01/12 10:27:55;;;;;;;2.78;0.88;;;12.40;99.90;;;;;;4910853;29;20646;-78
2023/01/12 10:30:27;;;;;;;3.10;1.42;;;12.50;99.90;;;;;;4914292;29;20058;-79
2023/01/12 10:32:54;;;;;;;3.90;0.88;;;12.50;99.90;;;;;;4930828;29;20058;-81
2023/01/12 10:35:22;;;;;;;2.72;0.80;;;12.50;99.90;;;;;;4930631;29;20063;-80
2023/01/12 10:37:51;;;;;;;6.25;1.15;;;12.50;99.90;;;;;;4896827;29;20470;-79
2023/01/12 10:40:22;;;;;;;3.65;1.10;;;12.50;99.90;;;;;;4891243;29;20237;-79
2023/01/12 10:46:11;;;;;;;7.20;1.55;;;12.60;99.90;;;;;;4923051;29;20050;-77
2023/01/12 10:48:39;;;;;;;6.53;1.30;;;12.60;99.90;;;;;;4929622;29;20198;-78
2023/01/12 10:51:16;;;;;;;1.55;0.55;;;12.60;99.90;;;;;;4928306;29;20106;-80
2023/01/12 10:54:00;;;;;;;4.72;0.95;;;12.50;99.90;;;;;;4930312;29;20059;-80
2023/01/12 10:56:30;;;;;;;2.38;0.80;;;12.50;99.90;;;;;;4929886;29;20055;-79
2023/01/12 10:58:59;;;;;;;5.22;1.08;;;12.60;99.90;;;;;;4930772;29;20063;-80
2023/01/12 11:01:44;;;;;;;2.05;0.60;;;12.50;99.90;;;;;;4913053;29;20083;-80
2023/01/12 11:04:13;;;;;;;4.05;0.80;;;12.50;99.90;;;;;;4929934;29;20131;-80
2023/01/12 11:06:45;;;;;;;5.20;1.00;;;12.50;99.90;;;;;;4911794;29;20051;-80
2023/01/12 11:09:23;;;;;;;10.98;1.10;;;12.40;99.90;;;;;;4913624;29;20059;-79
2023/01/12 11:12:00;;;;;;;2.95;0.68;;;12.40;99.90;;;;;;4928865;29;20054;-80
2023/01/12 11:14:36;;;;;;;6.63;1.35;;;12.30;99.90;;;;;;4928782;29;20069;-80
2023/01/12 11:17:22;;;;;;;7.72;1.20;;;12.30;99.90;;;;;;4928855;29;20052;-77
2023/01/12 11:19:48;;;;;;;11.10;1.58;;;12.20;99.90;;;;;;4928912;29;20044;-77
2023/01/12 11:22:19;;;;;;;8.23;1.25;;;12.20;99.90;;;;;;4912094;29;20048;-77
2023/01/12 11:24:54;;;;;;;3.35;1.95;;;12.10;99.90;;;;;;4897479;29;20521;-77
2023/01/12 11:27:22;;;;;;;3.70;0.90;;;12.10;99.90;;;;;;4913180;29;20079;-77
2023/01/12 11:30:02;;;;;;;5.65;1.13;;;12.10;99.90;;;;;;4912635;29;20047;-77
2023/01/12 11:32:40;;;;;;;7.03;1.73;;;12.10;99.90;;;;;;4913666;29;20047;-77
2023/01/12 11:36:01;;;;;;;6.13;1.08;;;12.10;99.90;;;;;;4906154;29;20079;-78
2023/01/12 11:38:46;;;;;;;5.93;1.05;;;12.10;99.90;;;;;;4839672;29;20123;-77
2023/01/12 11:41:35;;;;;;;6.38;1.00;;;12.20;99.90;;;;;;4924718;29;20059;-77
2023/01/12 11:44:14;;;;;;;4.10;1.00;;;12.10;99.90;;;;;;4929313;29;20044;-78
2023/01/12 11:46:52;;;;;;;5.07;0.80;;;12.10;99.90;;;;;;4929603;29;20289;-78
2023/01/12 11:49:19;;;;;;;6.95;1.00;;;12.10;99.90;;;;;;4928723;29;20055;-77
2023/01/12 11:51:52;;;;;;;4.07;0.98;;;12.20;99.90;;;;;;4929046;29;20138;-78
2023/01/12 11:54:19;;;;;;;4.50;0.90;;;12.20;99.90;;;;;;4912007;29;20056;-78
2023/01/12 11:57:01;;;;;;;6.75;1.48;;;12.20;99.90;;;;;;4912133;29;20083;-80
2023/01/12 11:59:44;;;;;;;6.60;1.58;;;12.20;99.90;;;;;;4928566;29;20455;-79
2023/01/12 12:02:31;;;;;;;5.78;1.17;;;12.20;99.90;;;;;;4912299;29;20055;-75
2023/01/12 12:05:36;;;;;;;6.18;1.73;;;12.20;99.90;;;;;;4893769;29;20051;-75
2023/01/12 12:08:21;;;;;;;2.17;1.38;;;12.30;99.90;;;;;;4910353;29;20104;-77
2023/01/12 12:11:28;;;;;;;6.53;1.23;;;12.30;99.90;;;;;;4923220;29;20135;-77
2023/01/12 12:14:13;;;;;;;1.98;1.13;;;12.30;99.90;;;;;;4929433;29;20074;-77
2023/01/12 12:16:43;;;;;;;7.18;1.10;;;12.30;99.90;;;;;;4928288;29;20048;-75
2023/01/12 12:19:18;;;;;;;4.45;1.23;;;12.30;99.90;;;;;;4928765;29;20040;-76
2023/01/12 12:22:08;;;;;;;5.63;1.20;;;12.40;99.90;;;;;;4918753;29;20079;-76
2023/01/12 12:24:41;;;;;;;5.40;1.65;;;12.30;99.90;;;;;;4918267;29;20699;-78
2023/01/12 12:27:16;;;;;;;3.17;1.00;;;12.30;99.90;;;;;;4928538;29;20060;-76
2023/01/12 12:30:02;;;;;;;4.97;1.10;;;12.30;99.90;;;;;;4928288;29;20079;-75
2023/01/12 12:32:58;;;;;;;2.35;0.77;;;12.40;99.90;;;;;;4912598;29;20237;-75
2023/01/12 12:35:40;;;;;;;8.70;1.88;;;12.40;99.90;;;;;;4911419;29;20052;-75
2023/01/12 12:38:35;;;;;;;8.95;2.47;;;12.40;99.90;;;;;;4895938;29;20627;-77
2023/01/12 12:47:39;;;;;;;7.07;1.35;;;12.40;99.90;;;;;;4916176;29;20083;-77
2023/01/12 12:50:33;;;;;;;4.43;1.15;;;12.40;99.90;;;;;;4928445;29;20543;-76
2023/01/12 12:53:19;;;;;;;2.17;0.77;;;12.30;99.90;;;;;;4883633;29;20048;-76
2023/01/12 12:55:45;;;;;;;5.55;1.20;;;12.40;99.90;;;;;;4911039;29;20515;-75
2023/01/12 12:58:21;;;;;;;5.90;1.13;;;12.40;99.90;;;;;;4895725;29;20047;-77
2023/01/12 13:00:49;;;;;;;2.67;1.20;;;12.40;99.90;;;;;;4927833;29;20146;-77
2023/01/12 13:03:37;;;;;;;4.47;1.15;;;12.40;99.90;;;;;;4928196;29;20051;-78
2023/01/12 13:06:29;;;;;;;4.35;0.95;;;12.40;99.90;;;;;;4928066;29;20044;-77
2023/01/12 13:09:01;;;;;;;4.93;0.77;;;12.40;99.90;;;;;;4928327;29;20103;-77
2023/01/12 13:11:49;;;;;;;3.22;1.00;;;12.40;99.90;;;;;;4928826;29;20476;-77
2023/01/12 13:14:20;;;;;;;7.60;2.05;;;12.40;99.90;;;;;;4936087;29;20070;-77
2023/01/12 13:16:48;;;;;;;6.18;1.35;;;12.40;99.90;;;;;;4935212;29;20054;-77
2023/01/12 13:19:31;;;;;;;4.50;1.50;;;12.40;99.90;;;;;;4935594;29;20590;-76
2023/01/12 13:21:58;;;;;;;6.85;1.00;;;12.40;99.90;;;;;;4934732;29;20062;-77
2023/01/12 13:24:27;;;;;;;7.68;1.10;;;12.40;99.90;;;;;;4919412;29;20052;-76
2023/01/12 13:26:56;;;;;;;4.07;0.88;;;12.40;99.90;;;;;;4938059;29;20031;-76
2023/01/12 13:29:23;;;;;;;8.68;1.50;;;12.40;99.90;;;;;;4904100;29;20392;-79
2023/01/12 13:31:51;;;;;;;5.07;1.02;;;12.40;99.90;;;;;;4934312;29;20122;-76
2023/01/12 13:34:36;;;;;;;4.47;1.13;;;12.40;99.90;;;;;;4916197;29;20051;-76
2023/01/12 13:37:24;;;;;;;4.38;1.23;;;12.50;99.90;;;;;;4932120;29;20055;-77
2023/01/12 13:39:57;;;;;;;14.95;4.18;;;12.50;99.90;;;;;;4915934;29;20567;-73
2023/01/12 13:45:10;;;;;;;1.40;0.80;;;12.50;99.90;;;;;;4916882;29;20438;-75
2023/01/12 13:47:36;;;;;;;4.53;1.05;;;12.50;99.90;;;;;;4931256;29;20131;-76